Weather observations for the past three days for
Los Alamitos Army Airfield
Metric (Imperial)
Date Time (pdt) Wind (kph) Vis. (km) Weather Sky Cond. Temperature (ºC) Relative Humidity Wind Chill (°C) Heat Index (°C) Pressure Precipitation (cm)
Air Dwpt 6 hour altimeter (cm) sea level (mb) 1 hr 3 hr 6 hr
Max. Min.
08 17:55 SW 17 11.27 Fair CLR 21 14.2 65% 75.9 1012.1
08 16:55 S 17 11.27 Fair CLR 21.1 14.2 23.4 19.1 65% 75.9 1012.1
08 15:55 S 15 16.09 A Few Clouds FEW020 22.6 14.4 60% 75.95 1012.8
08 14:55 SW 17 16.09 A Few Clouds FEW020 23.3 14.6 58% 76 1013.5
08 13:55 S 11 14.48 A Few Clouds FEW020 22.4 14.5 61% 76.02 1013.8
08 12:55 SW 15 9.66 Mostly Cloudy with Haze BKN018 21.8 14.4 63% 76.07 1014.5
08 11:55 SW 9 9.66 Overcast with Haze OVC016 20 14.6 71% 76.12 1015.2
08 10:55 S 6 9.66 Overcast with Haze OVC015 19.1 14.1 19.3 16.8 73% 76.15 1015.5
08 09:55 E 7 9.66 Overcast with Haze OVC013 18.2 13.9 76% 76.15 1015.5
08 08:55 SE 6 9.66 Overcast with Haze OVC011 17.6 14.1 80% 76.15 1015.5
08 07:55 NE 6 9.66 Overcast with Haze OVC011 17.3 14 81% 76.15 1015.5
08 06:55 SE 6 9.66 Overcast with Haze OVC010 17.1 14.2 83% 76.12 1015.2
08 05:55 Calm 12.87 Overcast OVC010 17 14.1 83% 76.1 1014.8
08 01:55 Calm 14.48 Overcast OVC011 16.9 14 83% 76.1 1014.8
07 15:55 SW 19 16.09 A Few Clouds FEW010 22.7 13.7 57% 75.95 1012.8
07 14:55 SW 19 16.09 A Few Clouds FEW025 22.4 13.7 58% 76 1013.5
07 13:55 S 20 16.09 Fair CLR 22.9 13.9 57% 76.05 1014.2
07 12:55 SW 15 G 28 16.09 Fair CLR 22.6 13.6 57% 76.07 1014.5
07 11:55 S 13 16.09 A Few Clouds FEW020 22 13.9 60% 76.12 1015.2
07 10:55 SW 9 16.09 A Few Clouds FEW020 21.3 13.7 21.5 12.6 62% 76.15 1015.5
07 09:55 Calm 16.09 A Few Clouds FEW020 20.8 13.5 63% 76.15 1015.5
07 08:55 Calm 16.09 A Few Clouds FEW015 18.3 13.2 72% 76.17 1015.9
07 07:55 Calm 16.09 A Few Clouds FEW015 17.6 13.3 76% 76.17 1015.9
07 06:55 Calm 16.09 A Few Clouds FEW010 13.9 12.9 94% 76.15 1015.5
07 05:55 Calm 9.66 Fog/Mist CLR 12.9 12 94% 76.1 1014.8
07 04:55 Calm 9.66 Fog/Mist CLR 12.9 11.5 16.5 12.6 91% 76.1 1014.8
07 03:55 Calm 12.87 Fair CLR 13 11.7 92% 76.12 1015.2
07 02:55 Calm 9.66 Fog/Mist CLR 13.9 12.3 90% 76.15 1015.5
07 01:55 Calm 14.48 Fair CLR 15.3 12.6 84% 76.17 1015.9
07 00:55 NW 7 14.48 Fair CLR 15 12.1 83% 76.2 1016.2
06 23:55 Calm 14.48 Fair CLR 15.6 12 79% 76.23 1016.5
06 22:55 NW 6 14.48 Fair CLR 16.5 12.2 22.9 15.8 76% 76.23 1016.5
06 21:55 NW 7 16.09 Fair CLR 16.3 11.9 75% 76.23 1016.5
06 19:55 NW 11 16.09 A Few Clouds FEW010 18.6 11.2 62% 76.15 1015.5
06 18:55 W 15 16.09 A Few Clouds FEW010 20.6 10.4 52% 76.12 1015.2
06 17:55 W 17 16.09 A Few Clouds FEW010 FEW030 22.6 11 48% 76.07 1014.5
06 16:55 SW 17 16.09 A Few Clouds FEW010 FEW030 22.5 10.9 23.6 19.8 48% 76.07 1014.5
06 15:55 SW 24 16.09 A Few Clouds FEW010 FEW030 22.8 10.2 45% 76.1 1014.8
06 14:55 SW 22 16.09 A Few Clouds FEW030 22.5 11.2 49% 76.15 1015.5
06 13:55 S 17 16.09 A Few Clouds FEW030 22.8 10.6 46% 76.2 1016.2
06 12:55 SW 15 16.09 A Few Clouds FEW035 21.8 10 47% 76.25 1016.9
06 11:55 S 13 16.09 A Few Clouds FEW033 21.4 10.8 51% 76.28 1017.2
06 10:55 SW 15 16.09 Mostly Cloudy BKN030 20.2 12.2 21.1 11.7 60% 76.3 1017.5
06 09:55 Calm 16.09 Partly Cloudy SCT027 19.4 9.6 53% 76.3 1017.5
06 08:55 Calm 16.09 A Few Clouds FEW025 18 11.1 64% 76.3 1017.5
06 07:55 NE 6 16.09 A Few Clouds FEW020 FEW160 16.2 10.1 67% 76.3 1017.6
06 06:55 E 7 16.09 A Few Clouds FEW020 13.5 9.3 76% 76.28 1017.2
06 05:55 E 6 14.48 Fair CLR 12.4 9 80% 76.23 1016.5
06 04:55 Calm 16.09 Fair CLR 13.2 10.2 15.5 13.1 82% 76.23 1016.5
06 03:55 E 7 16.09 A Few Clouds FEW018 14.2 11.3 83% 76.2 1016.2
06 02:55 Calm 14.48 Partly Cloudy SCT015 14.8 12.3 85% 76.23 1016.5
06 01:55 Calm 14.48 Fair CLR 14.9 12.4 85% 76.23 1016.5
06 00:55 Calm 16.09 Fair CLR 15.1 12.2 83% 76.25 1016.9
05 23:55 S 6 16.09 Fair CLR 15.1 11.9 81% 76.23 1016.5
05 22:55 Calm 16.09 Fair CLR 14.6 11.7 21.1 14.6 83% 76.2 1016.2
05 21:55 S 6 16.09 A Few Clouds FEW060 15 11.4 79% 76.17 1015.9
05 20:55 S 7 16.09 Partly Cloudy FEW030 SCT060 15.8 11 73% 76.1 1014.8
05 19:55 SW 13 16.09 Mostly Cloudy FEW010 FEW030 SCT060 BKN100 16.7 10.8 68% 76.05 1014.2
05 18:55 SW 15 16.09 Mostly Cloudy FEW030 SCT060 BKN100 17.8 9.7 59% 76 1013.5
Date Time (pdt) Wind (kph) Vis. (km) Weather Sky Cond. Air Dwpt Max. Min. Relative Humidity Wind Chill (°C) Heat Index (°C) altimeter (cm) sea level (mb) 1 hr 3 hr 6 hr
6 hour
Temperature (ºC) Pressure Precipitation (cm)